createdAt,value
2019-03-31T00:00:48.142Z,11.27
2019-03-31T00:03:18.460Z,10.97
2019-03-31T00:05:50.163Z,12.17
2019-03-31T00:08:20.489Z,11.53
2019-03-31T00:10:50.758Z,10.97
2019-03-31T00:13:22.331Z,11.27
2019-03-31T00:15:52.718Z,11.83
2019-03-31T00:18:23.010Z,10.97
2019-03-31T00:20:53.594Z,10.63
2019-03-31T00:23:23.904Z,11.67
2019-03-31T00:25:54.221Z,10.23
2019-03-31T00:28:24.880Z,12.53
2019-03-31T00:30:55.981Z,12.13
2019-03-31T00:33:26.303Z,11.40
2019-03-31T00:35:56.910Z,12.40
2019-03-31T00:38:27.246Z,11.97
2019-03-31T00:40:57.475Z,11.67
2019-03-31T00:43:28.051Z,11.83
2019-03-31T00:45:58.333Z,10.13
2019-03-31T00:48:28.601Z,10.13
2019-03-31T00:50:59.440Z,11.60
2019-03-31T00:53:29.739Z,10.93
2019-03-31T00:56:00.013Z,10.40
2019-03-31T00:58:30.567Z,9.60
2019-03-31T01:01:19.476Z,10.03
2019-03-31T01:03:49.920Z,10.60
2019-03-31T01:06:21.168Z,10.13
2019-03-31T01:08:51.570Z,9.70
2019-03-31T01:11:27.222Z,9.47
2019-03-31T01:13:58.131Z,9.33
2019-03-31T01:16:30.186Z,9.60
2019-03-31T01:19:00.580Z,9.10
2019-03-31T01:24:19.076Z,9.27
2019-03-31T01:27:00.067Z,8.60
2019-03-31T01:29:50.793Z,9.63
2019-03-31T01:32:21.663Z,9.17
2019-03-31T01:35:11.090Z,8.70
2019-03-31T01:38:00.075Z,8.87
2019-03-31T01:43:33.217Z,8.87
2019-03-31T01:46:22.466Z,8.90
2019-03-31T01:52:10.849Z,9.27
2019-03-31T01:54:52.141Z,8.87
2019-03-31T01:57:33.598Z,8.83
2019-03-31T02:03:18.885Z,9.23
2019-03-31T02:06:00.588Z,10.20
2019-03-31T02:08:31.295Z,8.70
2019-03-31T02:11:01.556Z,8.73
2019-03-31T02:13:32.192Z,9.63
2019-03-31T02:16:02.855Z,9.50
2019-03-31T02:18:33.224Z,9.33
2019-03-31T02:21:03.526Z,10.37
2019-03-31T02:23:33.808Z,9.10
2019-03-31T02:26:04.445Z,8.97
2019-03-31T02:28:34.765Z,9.60
2019-03-31T02:31:04.977Z,9.23
2019-03-31T02:33:35.506Z,9.57
2019-03-31T02:36:05.906Z,10.37
2019-03-31T02:38:36.133Z,10.60
2019-03-31T02:41:07.687Z,10.73
2019-03-31T02:43:37.950Z,10.70
2019-03-31T02:46:08.176Z,11.47
2019-03-31T02:48:38.775Z,11.27
2019-03-31T02:51:09.202Z,10.27
2019-03-31T02:53:39.519Z,10.07
2019-03-31T02:56:12.558Z,9.57
2019-03-31T02:58:42.868Z,9.83
2019-03-31T03:01:15.309Z,9.33
2019-03-31T03:03:47.229Z,9.47
2019-03-31T03:06:18.983Z,9.40
2019-03-31T03:08:51.958Z,9.27
2019-03-31T03:11:23.113Z,9.77
2019-03-31T03:13:53.920Z,10.63
2019-03-31T03:16:24.489Z,9.30
2019-03-31T03:18:55.095Z,9.13
2019-03-31T03:21:25.562Z,10.10
2019-03-31T03:23:56.324Z,10.23
2019-03-31T03:26:26.921Z,9.30
2019-03-31T03:28:57.100Z,9.80
2019-03-31T03:31:27.337Z,10.63
2019-03-31T03:33:57.914Z,9.80
2019-03-31T03:36:28.093Z,10.33
2019-03-31T03:38:58.370Z,9.13
2019-03-31T03:41:28.923Z,9.30
2019-03-31T03:44:02.381Z,9.57
2019-03-31T03:46:31.076Z,9.70
2019-03-31T03:49:01.653Z,9.90
2019-03-31T03:51:31.865Z,10.50
2019-03-31T03:54:02.217Z,9.60
2019-03-31T03:56:32.735Z,10.47
2019-03-31T03:59:02.960Z,9.30
2019-03-31T04:01:33.478Z,9.87
2019-03-31T04:04:04.005Z,9.47
2019-03-31T04:06:34.237Z,10.13
2019-03-31T04:09:06.390Z,9.53
2019-03-31T04:11:37.043Z,10.47
2019-03-31T04:14:07.286Z,9.93
2019-03-31T04:16:37.574Z,10.23
2019-03-31T04:19:08.142Z,10.37
2019-03-31T04:21:38.319Z,10.30
2019-03-31T04:24:08.585Z,10.13
2019-03-31T04:26:39.230Z,10.03
2019-03-31T04:29:09.451Z,9.87
2019-03-31T04:31:40.031Z,9.40
2019-03-31T04:34:10.565Z,10.33
2019-03-31T04:36:40.758Z,8.90
2019-03-31T04:45:38.777Z,10.10
2019-03-31T04:48:27.723Z,10.07
2019-03-31T04:57:17.030Z,9.33
2019-03-31T04:59:58.629Z,9.23
2019-03-31T05:02:39.821Z,10.07
2019-03-31T05:05:29.062Z,9.27
2019-03-31T05:07:59.781Z,8.90
2019-03-31T05:10:48.771Z,8.50
2019-03-31T05:13:19.300Z,9.73
2019-03-31T05:15:49.583Z,9.77
2019-03-31T05:18:19.750Z,9.60
2019-03-31T05:20:50.402Z,9.60
2019-03-31T05:26:20.496Z,9.63
2019-03-31T05:32:09.384Z,8.27
2019-03-31T05:44:07.093Z,10.17
2019-03-31T05:49:55.958Z,8.80
2019-03-31T05:52:27.084Z,8.17
2019-03-31T05:54:57.584Z,9.23
2019-03-31T05:57:28.030Z,9.03
2019-03-31T06:03:31.224Z,8.23
2019-03-31T06:06:12.273Z,9.23
2019-03-31T06:08:54.076Z,9.30
2019-03-31T06:11:35.802Z,10.33
2019-03-31T06:14:16.935Z,11.20
2019-03-31T06:16:58.316Z,10.83
2019-03-31T06:19:39.944Z,11.70
2019-03-31T06:22:20.776Z,11.87
2019-03-31T06:25:30.061Z,14.80
2019-03-31T06:28:19.030Z,16.47
2019-03-31T06:31:07.954Z,20.00
2019-03-31T06:33:56.963Z,19.40
2019-03-31T06:39:44.386Z,28.83
2019-03-31T06:45:33.083Z,33.97
2019-03-31T06:48:03.408Z,35.90
2019-03-31T06:50:33.624Z,37.50
2019-03-31T06:53:04.256Z,35.97
2019-03-31T06:55:34.650Z,36.13
2019-03-31T06:58:04.899Z,37.63
2019-03-31T07:00:35.420Z,38.83
2019-03-31T07:03:06.086Z,38.83
2019-03-31T07:05:36.315Z,39.33
2019-03-31T07:08:06.902Z,40.37
2019-03-31T07:10:37.204Z,40.37
2019-03-31T07:13:07.437Z,39.37
2019-03-31T07:15:37.807Z,38.53
2019-03-31T07:18:08.178Z,39.03
2019-03-31T07:20:38.735Z,38.23
2019-03-31T07:23:08.967Z,39.30
2019-03-31T07:25:39.374Z,40.27
2019-03-31T07:28:10.054Z,39.40
2019-03-31T07:30:40.313Z,39.57
2019-03-31T07:33:10.616Z,41.30
2019-03-31T07:35:41.205Z,40.80
2019-03-31T07:38:11.862Z,39.67
2019-03-31T07:40:42.091Z,41.13
2019-03-31T07:43:12.726Z,40.73
2019-03-31T07:45:43.121Z,43.10
2019-03-31T07:48:13.423Z,38.97
2019-03-31T07:50:45.112Z,39.77
2019-03-31T07:53:15.337Z,39.77
2019-03-31T07:55:45.672Z,38.60
2019-03-31T07:58:16.183Z,39.10
2019-03-31T08:00:46.453Z,38.80
2019-03-31T08:03:16.829Z,39.77
2019-03-31T08:05:48.276Z,39.07
2019-03-31T08:08:18.537Z,40.40
2019-03-31T08:10:48.874Z,39.17
2019-03-31T08:13:19.134Z,42.37
2019-03-31T08:15:49.456Z,43.30
2019-03-31T08:18:20.006Z,41.57
2019-03-31T08:20:50.271Z,41.67
2019-03-31T08:23:20.558Z,42.20
2019-03-31T08:25:51.292Z,43.53
2019-03-31T08:28:21.596Z,42.60
2019-03-31T08:30:51.906Z,42.67
2019-03-31T08:33:22.644Z,43.60
2019-03-31T08:35:52.898Z,43.27
2019-03-31T08:38:24.552Z,45.93
2019-03-31T08:40:56.766Z,42.47
2019-03-31T08:43:27.072Z,41.97
2019-03-31T08:45:57.328Z,41.83
2019-03-31T08:48:28.049Z,40.67
2019-03-31T08:50:58.333Z,40.00
2019-03-31T08:53:29.303Z,40.47
2019-03-31T08:55:59.606Z,40.67
2019-03-31T08:58:29.860Z,39.67
2019-03-31T09:01:04.486Z,40.73
2019-03-31T09:03:35.193Z,40.93
2019-03-31T09:06:05.967Z,41.07
2019-03-31T09:08:37.279Z,41.93
2019-03-31T09:11:07.550Z,39.07
2019-03-31T09:13:38.167Z,39.10
2019-03-31T09:16:08.618Z,37.77
2019-03-31T09:18:38.895Z,39.17
2019-03-31T09:21:10.600Z,39.60
2019-03-31T09:23:40.948Z,38.57
2019-03-31T09:26:11.202Z,37.57
2019-03-31T09:28:41.822Z,38.50
2019-03-31T09:31:12.103Z,37.00
2019-03-31T09:33:42.318Z,36.73
2019-03-31T09:36:16.470Z,36.80
2019-03-31T09:38:45.064Z,36.27
2019-03-31T09:41:15.277Z,35.77
2019-03-31T09:43:46.937Z,37.47
2019-03-31T09:46:17.211Z,34.80
2019-03-31T09:48:47.396Z,36.27
2019-03-31T09:51:18.061Z,35.53
2019-03-31T09:53:48.384Z,36.67
2019-03-31T09:56:18.701Z,36.07
2019-03-31T09:58:49.256Z,34.30
2019-03-31T10:01:19.575Z,34.97
2019-03-31T10:03:49.827Z,33.87
2019-03-31T10:06:30.204Z,34.90
2019-03-31T10:08:52.472Z,35.47
2019-03-31T10:11:23.247Z,33.03
2019-03-31T10:13:53.920Z,32.43
2019-03-31T10:16:24.911Z,32.30
2019-03-31T10:18:55.222Z,32.20
2019-03-31T10:21:25.821Z,29.60
2019-03-31T10:23:56.104Z,30.03
2019-03-31T10:26:32.102Z,30.90
2019-03-31T10:28:58.685Z,33.23
2019-03-31T10:31:29.410Z,33.07
2019-03-31T10:33:59.656Z,32.00
2019-03-31T10:36:43.543Z,32.23
2019-03-31T10:39:01.904Z,31.47
2019-03-31T10:41:32.518Z,30.53
2019-03-31T10:44:02.728Z,30.83
2019-03-31T10:46:33.073Z,30.80
2019-03-31T10:49:03.334Z,32.47
2019-03-31T10:51:34.056Z,30.37
2019-03-31T10:54:04.935Z,30.50
2019-03-31T10:56:35.213Z,32.10
2019-03-31T10:59:05.568Z,31.30
2019-03-31T11:01:35.883Z,32.80
2019-03-31T11:04:06.315Z,31.23
2019-03-31T11:06:37.047Z,32.93
2019-03-31T11:09:09.327Z,31.43
2019-03-31T11:11:39.613Z,32.87
2019-03-31T11:14:10.222Z,32.53
2019-03-31T11:16:40.557Z,29.80
2019-03-31T11:19:10.809Z,32.40
2019-03-31T11:21:53.792Z,33.47
2019-03-31T11:24:24.083Z,32.37
2019-03-31T11:26:54.638Z,32.27
2019-03-31T11:29:33.309Z,32.03
2019-03-31T11:32:03.917Z,34.63
2019-03-31T11:34:34.530Z,31.50
2019-03-31T11:37:13.336Z,31.20
2019-03-31T11:39:36.889Z,33.63
2019-03-31T11:42:07.541Z,33.40
2019-03-31T11:44:37.858Z,33.43
2019-03-31T11:47:08.158Z,32.53
2019-03-31T11:49:38.514Z,31.07
2019-03-31T11:52:08.932Z,29.70
2019-03-31T11:54:39.589Z,31.17
2019-03-31T11:57:09.888Z,28.47
2019-03-31T11:59:40.252Z,28.67
2019-03-31T12:02:10.522Z,28.60
2019-03-31T12:04:40.776Z,27.83
2019-03-31T12:07:11.573Z,29.27
2019-03-31T12:09:41.918Z,26.17
2019-03-31T12:12:12.613Z,28.67
2019-03-31T12:17:07.041Z,27.87
2019-03-31T12:19:56.096Z,26.93
2019-03-31T12:23:05.412Z,27.57
2019-03-31T12:25:54.450Z,27.07
2019-03-31T12:28:42.510Z,27.50
2019-03-31T12:34:22.611Z,22.57
2019-03-31T12:40:21.175Z,22.50
2019-03-31T12:46:01.114Z,22.13
2019-03-31T12:48:31.917Z,21.27
2019-03-31T12:54:23.433Z,21.20
2019-03-31T13:00:22.480Z,21.07
2019-03-31T13:02:52.826Z,19.63
2019-03-31T13:05:23.152Z,21.10
2019-03-31T13:11:13.074Z,19.37
2019-03-31T13:13:43.878Z,19.83
2019-03-31T13:16:14.155Z,20.70
2019-03-31T13:22:02.870Z,19.27
2019-03-31T13:24:52.033Z,19.17
2019-03-31T13:27:22.665Z,19.67
2019-03-31T13:30:11.923Z,21.27
2019-03-31T13:33:00.921Z,19.90
2019-03-31T13:35:53.096Z,19.30
2019-03-31T13:38:22.055Z,18.50
2019-03-31T13:41:11.091Z,18.63
2019-03-31T13:43:41.685Z,17.40
2019-03-31T13:46:30.791Z,17.33
2019-03-31T13:52:22.436Z,16.87
2019-03-31T13:55:01.228Z,15.77
2019-03-31T14:12:51.535Z,14.67
2019-03-31T14:15:33.110Z,16.53
2019-03-31T14:24:21.741Z,16.57
2019-03-31T14:27:02.862Z,16.67
2019-03-31T14:35:24.282Z,14.87
2019-03-31T14:38:05.942Z,16.10
2019-03-31T14:46:34.639Z,15.63
2019-03-31T14:49:15.895Z,16.53
2019-03-31T14:52:03.770Z,15.20
2019-03-31T14:54:45.276Z,15.33
2019-03-31T14:57:27.043Z,14.97
2019-03-31T15:00:15.119Z,16.07
2019-03-31T15:02:51.001Z,15.40
2019-03-31T15:05:31.807Z,15.53
2019-03-31T15:08:12.910Z,15.47
2019-03-31T15:10:54.492Z,15.50
2019-03-31T15:13:35.514Z,15.20
2019-03-31T15:16:17.191Z,15.10
2019-03-31T15:30:19.441Z,14.17
2019-03-31T15:33:00.751Z,13.93
2019-03-31T15:47:22.056Z,13.70
2019-03-31T15:49:53.706Z,13.03
2019-03-31T15:52:34.765Z,13.27
2019-03-31T15:55:16.185Z,13.63
2019-03-31T15:57:57.282Z,12.20
2019-03-31T16:00:27.936Z,12.13
2019-03-31T16:02:58.418Z,12.63
2019-03-31T16:05:28.864Z,11.50
2019-03-31T16:08:17.620Z,11.07
2019-03-31T16:10:47.476Z,12.17
2019-03-31T16:13:17.597Z,12.23
2019-03-31T16:15:47.499Z,11.23
2019-03-31T16:18:17.299Z,11.17
2019-03-31T16:20:47.339Z,11.03
2019-03-31T16:23:17.095Z,11.90
2019-03-31T16:41:34.109Z,8.87
2019-03-31T16:47:35.908Z,8.87
2019-03-31T16:59:12.439Z,8.53
2019-03-31T17:10:13.882Z,8.53
2019-03-31T17:18:36.606Z,8.03
2019-03-31T17:21:18.354Z,7.87
2019-03-31T17:44:43.431Z,6.60
2019-03-31T18:11:48.699Z,6.77
2019-03-31T18:14:26.198Z,6.50
2019-03-31T18:16:56.238Z,8.03
2019-03-31T18:19:26.274Z,6.43
2019-03-31T18:22:15.785Z,7.27
2019-03-31T18:24:43.212Z,6.03
2019-03-31T18:27:22.238Z,5.87
2019-03-31T18:29:57.008Z,6.97
2019-03-31T18:32:27.220Z,6.53
2019-03-31T18:34:57.902Z,6.10
2019-03-31T18:37:27.894Z,5.70
2019-03-31T18:40:06.193Z,6.23
2019-03-31T18:42:37.260Z,4.87
2019-03-31T18:54:56.248Z,5.73
2019-03-31T19:50:28.658Z,4.03
2019-03-31T19:53:36.858Z,4.07
2019-03-31T19:56:45.145Z,4.10
2019-03-31T19:59:53.324Z,4.67
2019-03-31T20:03:01.467Z,4.03
2019-03-31T20:09:12.234Z,4.50
2019-03-31T20:12:14.836Z,4.03
2019-03-31T20:14:55.676Z,3.93
2019-03-31T20:17:45.457Z,3.93
2019-03-31T20:20:38.213Z,4.60
2019-03-31T20:23:24.892Z,4.40
2019-03-31T20:26:17.709Z,4.60
2019-03-31T20:29:06.163Z,3.90
2019-03-31T20:31:59.316Z,4.40
2019-03-31T20:34:41.939Z,4.43
2019-03-31T20:37:43.448Z,4.37
2019-03-31T20:40:35.187Z,4.47
2019-03-31T20:43:27.769Z,3.97
2019-03-31T20:45:58.842Z,3.57
2019-03-31T20:48:29.720Z,3.70
2019-03-31T20:51:00.673Z,3.40
2019-03-31T20:53:31.549Z,3.63
2019-03-31T20:56:02.393Z,3.50
2019-03-31T20:58:33.584Z,4.50
2019-03-31T21:01:04.582Z,3.73
2019-03-31T21:03:35.398Z,3.73
2019-03-31T21:06:06.580Z,3.73
2019-03-31T21:08:37.504Z,3.27
2019-03-31T21:11:08.361Z,3.73
2019-03-31T21:13:39.362Z,3.83
2019-03-31T21:16:10.112Z,4.07
2019-03-31T21:18:41.031Z,3.73
2019-03-31T21:21:12.095Z,3.70
2019-03-31T21:23:42.900Z,3.37
2019-03-31T21:26:13.923Z,3.43
2019-03-31T21:28:45.790Z,3.27
2019-03-31T21:31:16.630Z,3.90
2019-03-31T21:33:47.535Z,3.43
2019-03-31T21:36:18.827Z,3.63
2019-03-31T21:38:49.681Z,2.87
2019-03-31T21:41:20.548Z,3.50
2019-03-31T21:43:52.292Z,2.90
2019-03-31T21:46:23.174Z,3.37
2019-03-31T21:48:54.069Z,3.70
2019-03-31T21:51:25.285Z,3.67
2019-03-31T21:53:56.161Z,3.40
2019-03-31T21:56:27.052Z,4.00
2019-03-31T21:58:58.247Z,3.13
2019-03-31T22:01:29.071Z,3.57
2019-03-31T22:03:59.821Z,3.00
2019-03-31T22:06:31.163Z,3.10
2019-03-31T22:09:02.021Z,3.53
2019-03-31T22:11:32.843Z,2.87
2019-03-31T22:14:03.823Z,3.00
2019-03-31T22:16:34.645Z,3.23
2019-03-31T22:19:05.421Z,3.10
2019-03-31T22:21:36.278Z,2.80
2019-03-31T22:24:06.973Z,3.33
2019-03-31T22:26:37.797Z,2.87
2019-03-31T22:29:08.760Z,3.17
2019-03-31T22:31:40.535Z,3.03
2019-03-31T22:34:11.493Z,3.20
2019-03-31T22:36:42.297Z,3.10
2019-03-31T22:39:13.044Z,3.13
2019-03-31T22:41:43.866Z,3.10
2019-03-31T22:44:14.585Z,3.33
2019-03-31T22:46:54.056Z,3.00
2019-03-31T22:49:18.006Z,3.90
2019-03-31T22:51:48.840Z,3.10
2019-03-31T22:54:19.672Z,3.30
2019-03-31T22:56:50.992Z,2.97
2019-03-31T22:59:22.059Z,2.20
2019-03-31T23:01:52.749Z,3.07
2019-03-31T23:04:23.729Z,2.43
2019-03-31T23:06:54.659Z,2.60
2019-03-31T23:09:25.568Z,3.50
2019-03-31T23:12:33.692Z,3.63
2019-03-31T23:15:41.632Z,2.27
2019-03-31T23:18:49.999Z,2.73
2019-03-31T23:21:39.604Z,2.43
2019-03-31T23:24:10.583Z,2.37
2019-03-31T23:26:41.398Z,2.30
2019-03-31T23:29:12.091Z,2.30
2019-03-31T23:31:42.938Z,3.00
2019-03-31T23:34:13.785Z,2.33
2019-03-31T23:36:44.480Z,2.37
2019-03-31T23:39:15.394Z,1.67
2019-03-31T23:41:46.059Z,2.23
2019-03-31T23:44:16.961Z,2.00
2019-03-31T23:46:48.080Z,2.20
2019-03-31T23:49:18.948Z,2.00
2019-03-31T23:51:49.785Z,1.80
2019-03-31T23:54:20.638Z,1.70
2019-03-31T23:56:51.454Z,1.80
2019-03-31T23:59:22.245Z,2.00
